createdAt,value
2023-03-19T00:01:23.995Z,100735.97
2023-03-19T00:06:26.617Z,100553.28
2023-03-19T00:11:28.875Z,100721.31
2023-03-19T00:16:31.268Z,100711.34
2023-03-19T00:21:33.578Z,100521.22
2023-03-19T00:26:37.858Z,100195.72
2023-03-19T00:31:40.987Z,100673.16
2023-03-19T00:36:43.155Z,100524.47
2023-03-19T00:41:50.702Z,100639.13
2023-03-19T00:47:00.939Z,100712.81
2023-03-19T00:52:03.147Z,100574.81
2023-03-19T00:57:05.931Z,100685.38
2023-03-19T01:02:09.207Z,100481.00
2023-03-19T01:07:11.647Z,100650.88
2023-03-19T01:12:13.876Z,100673.53
2023-03-19T01:17:16.279Z,100563.91
2023-03-19T01:22:18.646Z,100570.47
2023-03-19T01:27:27.333Z,100578.13
2023-03-19T01:32:29.825Z,100606.28
2023-03-19T01:38:04.630Z,100536.09
2023-03-19T01:43:22.562Z,100582.69
2023-03-19T01:48:50.620Z,100650.19
2023-03-19T01:53:59.306Z,100653.13
2023-03-19T01:59:36.698Z,100647.78
2023-03-19T02:05:02.155Z,100636.22
2023-03-19T02:10:09.247Z,100640.22
2023-03-19T02:15:12.954Z,100638.22
2023-03-19T02:20:40.922Z,100629.53
2023-03-19T02:25:46.627Z,100626.09
2023-03-19T02:30:49.702Z,100619.09
2023-03-19T02:35:53.516Z,100651.94
2023-03-19T02:41:00.539Z,100635.38
2023-03-19T02:46:07.637Z,100621.56
2023-03-19T02:51:09.995Z,100530.38
2023-03-19T02:56:12.480Z,100429.88
2023-03-19T03:01:16.042Z,100618.94
2023-03-19T03:06:18.407Z,100518.81
2023-03-19T03:11:21.845Z,100590.00
2023-03-19T03:16:24.514Z,100565.28
2023-03-19T03:21:27.333Z,100533.59
2023-03-19T03:26:29.625Z,100601.34
2023-03-19T03:31:32.274Z,100569.72
2023-03-19T03:36:34.460Z,100519.22
2023-03-19T03:41:36.779Z,100574.16
2023-03-19T03:46:39.114Z,100598.28
2023-03-19T03:51:48.146Z,100548.63
2023-03-19T03:56:56.144Z,100501.88
2023-03-19T04:01:58.814Z,100521.78
2023-03-19T04:07:01.285Z,100529.00
2023-03-19T04:12:23.883Z,100387.16
2023-03-19T04:17:26.492Z,100574.75
2023-03-19T04:22:29.184Z,100599.31
2023-03-19T04:27:31.462Z,100588.06
2023-03-19T04:32:35.823Z,100560.47
2023-03-19T04:37:38.663Z,100593.66
2023-03-19T04:42:41.760Z,100549.97
2023-03-19T04:47:50.154Z,100531.25
2023-03-19T04:52:52.453Z,100459.72
2023-03-19T04:57:55.177Z,100569.03
2023-03-19T05:03:02.673Z,100558.66
2023-03-19T05:08:07.747Z,100422.00
2023-03-19T05:13:11.094Z,100565.81
2023-03-19T05:18:18.038Z,100535.38
2023-03-19T05:23:21.545Z,100556.97
2023-03-19T05:28:40.366Z,100532.84
2023-03-19T05:33:42.793Z,100532.28
2023-03-19T05:38:45.487Z,100496.78
2023-03-19T05:43:54.676Z,100472.34
2023-03-19T05:49:16.897Z,100515.13
2023-03-19T05:54:19.758Z,100483.44
2023-03-19T05:59:38.518Z,100527.63
2023-03-19T06:04:56.939Z,100410.94
2023-03-19T06:10:06.813Z,100500.66
2023-03-19T06:15:09.820Z,100407.31
2023-03-19T06:20:21.088Z,100440.19
2023-03-19T06:25:24.599Z,100364.50
2023-03-19T06:30:28.104Z,100482.63
2023-03-19T06:35:33.378Z,100492.75
2023-03-19T06:40:36.484Z,100486.25
2023-03-19T06:45:40.674Z,100501.47
2023-03-19T06:50:43.205Z,100078.13
2023-03-19T06:55:47.336Z,100344.66
2023-03-19T07:00:49.886Z,100372.19
2023-03-19T07:05:52.233Z,100386.22
2023-03-19T07:10:54.482Z,100403.09
2023-03-19T07:15:56.681Z,100392.19
2023-03-19T07:21:06.132Z,100426.44
2023-03-19T07:26:32.902Z,100052.75
2023-03-19T07:31:35.363Z,100348.22
2023-03-19T07:36:37.798Z,100442.78
2023-03-19T07:41:40.168Z,100147.97
2023-03-19T07:46:45.212Z,100082.53
2023-03-19T07:51:47.696Z,100329.16
2023-03-19T07:56:50.316Z,99997.91
2023-03-19T08:01:52.550Z,100395.88
2023-03-19T08:06:54.805Z,100369.63
2023-03-19T08:11:57.132Z,100330.50
2023-03-19T08:16:59.439Z,100239.03
2023-03-19T08:22:01.732Z,100139.66
2023-03-19T08:27:04.141Z,100316.59
2023-03-19T08:32:06.767Z,99803.25
2023-03-19T08:37:09.154Z,100348.13
2023-03-19T08:42:11.895Z,100223.13
2023-03-19T08:47:14.433Z,99988.13
2023-03-19T08:52:18.018Z,100331.06
2023-03-19T08:57:20.677Z,99978.28
2023-03-19T09:02:53.594Z,100342.97
2023-03-19T09:08:07.388Z,100305.50
2023-03-19T09:13:10.802Z,100188.72
2023-03-19T09:18:13.115Z,100308.16
2023-03-19T09:23:16.488Z,100127.91
2023-03-19T09:28:18.828Z,100223.94
2023-03-19T09:33:22.251Z,100318.53
2023-03-19T09:38:24.709Z,99767.09
2023-03-19T09:43:41.150Z,100296.91
2023-03-19T09:48:54.916Z,100236.72
2023-03-19T09:54:01.136Z,100296.09
2023-03-19T09:59:03.585Z,100144.19
2023-03-19T10:10:37.896Z,100258.25
2023-03-19T10:15:41.350Z,99671.44
2023-03-19T10:20:53.664Z,100199.63
2023-03-19T10:25:58.535Z,100213.06
2023-03-19T10:31:19.496Z,100240.13
2023-03-19T10:36:27.115Z,100213.78
2023-03-19T10:42:05.026Z,100232.75
2023-03-19T10:47:12.390Z,100226.75
2023-03-19T10:52:22.418Z,100114.84
2023-03-19T10:57:35.458Z,100222.66
2023-03-19T11:02:38.146Z,99976.34
2023-03-19T11:07:51.522Z,100211.56
2023-03-19T11:12:58.808Z,100207.34
2023-03-19T11:18:08.616Z,99724.38
2023-03-19T11:23:18.218Z,99757.81
2023-03-19T11:28:26.572Z,99453.25
2023-03-19T11:34:07.040Z,99915.09
2023-03-19T11:39:22.861Z,100171.22
2023-03-19T11:44:39.647Z,100167.81
2023-03-19T11:50:18.829Z,100154.22
2023-03-19T11:56:06.303Z,99607.88
2023-03-19T12:01:50.710Z,100138.03
2023-03-19T12:07:21.864Z,100129.44
2023-03-19T12:13:06.350Z,100115.69
2023-03-19T12:18:33.800Z,100102.28
2023-03-19T12:24:07.146Z,100108.03
2023-03-19T12:29:23.821Z,100103.78
2023-03-19T12:34:30.847Z,100039.41
2023-03-19T12:39:35.952Z,100091.38
2023-03-19T12:44:42.624Z,100057.09
2023-03-19T12:50:00.084Z,99904.97
2023-03-19T12:55:05.364Z,100062.47
2023-03-19T13:00:11.197Z,100050.13
2023-03-19T13:05:43.750Z,100007.03
2023-03-19T13:11:06.620Z,100055.78
2023-03-19T13:16:33.204Z,100059.06
2023-03-19T13:21:37.943Z,100057.00
2023-03-19T13:26:40.350Z,100049.03
2023-03-19T13:31:43.669Z,100054.16
2023-03-19T13:36:48.996Z,100040.34
2023-03-19T13:41:53.721Z,99943.41
2023-03-19T13:46:56.015Z,99999.00
2023-03-19T13:52:23.925Z,99993.78
2023-03-19T13:57:36.001Z,100020.25
2023-03-19T14:02:38.585Z,100018.25
2023-03-19T14:07:42.675Z,99996.22
2023-03-19T14:12:50.059Z,100005.16
2023-03-19T14:17:59.802Z,99999.13
2023-03-19T14:23:11.817Z,99999.41
2023-03-19T14:28:19.143Z,99982.03
2023-03-19T14:33:35.070Z,99988.25
2023-03-19T14:39:05.360Z,99978.72
2023-03-19T14:44:23.095Z,99979.06
2023-03-19T14:49:49.813Z,99983.41
2023-03-19T14:54:59.188Z,99956.78
2023-03-19T15:00:02.277Z,99799.03
2023-03-19T15:05:09.374Z,99885.69
2023-03-19T15:10:19.861Z,99974.63
2023-03-19T15:15:35.393Z,99944.31
2023-03-19T15:20:40.190Z,99943.53
2023-03-19T15:25:47.343Z,99941.03
2023-03-19T15:31:13.342Z,99964.44
2023-03-19T15:36:30.374Z,99978.97
2023-03-19T15:41:35.274Z,99878.81
2023-03-19T15:46:39.317Z,99968.75
2023-03-19T15:51:42.305Z,99980.41
2023-03-19T15:56:44.590Z,99954.16
2023-03-19T16:01:47.002Z,99967.06
2023-03-19T16:06:50.105Z,99985.09
2023-03-19T16:11:53.325Z,99916.78
2023-03-19T16:17:13.180Z,99965.94
2023-03-19T16:22:17.778Z,99916.59
2023-03-19T16:27:22.817Z,99955.00
2023-03-19T16:32:30.015Z,99979.34
2023-03-19T16:37:35.268Z,99974.47
2023-03-19T16:42:51.073Z,99986.19
2023-03-19T16:48:03.653Z,99988.50
2023-03-19T16:53:24.196Z,99925.72
2023-03-19T16:58:43.002Z,99976.69
2023-03-19T17:03:46.031Z,99977.75
2023-03-19T17:08:48.515Z,99881.16
2023-03-19T17:13:54.079Z,99944.38
2023-03-19T17:18:56.897Z,99967.22
2023-03-19T17:24:01.019Z,99934.94
2023-03-19T17:29:03.490Z,99980.53
2023-03-19T17:34:11.727Z,99975.91
2023-03-19T17:39:14.061Z,99940.19
2023-03-19T17:44:16.518Z,99927.31
2023-03-19T17:49:24.256Z,99960.47
2023-03-19T17:54:28.183Z,99924.22
2023-03-19T17:59:30.467Z,99934.75
2023-03-19T18:04:32.709Z,99915.34
2023-03-19T18:09:35.134Z,99928.91
2023-03-19T18:14:37.505Z,99963.28
2023-03-19T18:19:39.941Z,99882.91
2023-03-19T18:24:43.149Z,99974.63
2023-03-19T18:29:47.797Z,99935.72
2023-03-19T18:34:53.029Z,99936.25
2023-03-19T18:39:58.148Z,99904.88
2023-03-19T18:45:01.615Z,99951.66
2023-03-19T18:50:27.457Z,99955.16
2023-03-19T18:55:30.656Z,99946.88
2023-03-19T19:00:35.394Z,99858.19
2023-03-19T19:05:37.699Z,99931.03
2023-03-19T19:10:40.605Z,99956.34
2023-03-19T19:15:42.902Z,99940.34
2023-03-19T19:20:47.278Z,99946.56
2023-03-19T19:25:52.329Z,99905.72
2023-03-19T19:30:56.315Z,99945.25
2023-03-19T19:35:58.689Z,99864.06
2023-03-19T19:41:01.177Z,99922.88
2023-03-19T19:46:03.463Z,99899.03
2023-03-19T19:51:08.291Z,99934.03
2023-03-19T19:56:21.983Z,99938.31
2023-03-19T20:01:25.790Z,99939.56
2023-03-19T20:06:28.167Z,99854.81
2023-03-19T20:11:32.898Z,99939.00
2023-03-19T20:16:35.133Z,99920.69
2023-03-19T20:21:37.314Z,99896.59
2023-03-19T20:26:39.491Z,99880.22
2023-03-19T20:31:41.671Z,99926.13
2023-03-19T20:36:43.971Z,99813.78
2023-03-19T20:41:46.294Z,99890.38
2023-03-19T20:46:51.025Z,99813.53
2023-03-19T20:51:53.221Z,99927.16
2023-03-19T20:56:55.533Z,99907.81
2023-03-19T21:01:57.937Z,99826.34
2023-03-19T21:07:00.846Z,99841.25
2023-03-19T21:12:03.196Z,99889.56
2023-03-19T21:17:07.326Z,99897.16
2023-03-19T21:22:16.054Z,99877.13
2023-03-19T21:27:24.159Z,99894.88
2023-03-19T21:32:26.360Z,99908.03
2023-03-19T21:37:28.519Z,99836.50
2023-03-19T21:42:31.984Z,99731.22
2023-03-19T21:47:34.076Z,99904.25
2023-03-19T21:52:54.054Z,99824.50
2023-03-19T21:57:59.015Z,99898.00
2023-03-19T22:03:01.875Z,99780.28
2023-03-19T22:08:04.118Z,99817.34
2023-03-19T22:13:06.616Z,99761.16
2023-03-19T22:18:14.477Z,99905.13
2023-03-19T22:23:17.271Z,99808.97
2023-03-19T22:28:32.685Z,99901.47
2023-03-19T22:33:34.944Z,99869.56
2023-03-19T22:38:37.250Z,99840.59
2023-03-19T22:43:39.357Z,99836.19
2023-03-19T22:48:42.865Z,99873.19
2023-03-19T22:53:45.731Z,99882.63
2023-03-19T22:58:48.948Z,99801.50
2023-03-19T23:03:51.960Z,99851.66
2023-03-19T23:08:54.202Z,99831.59
2023-03-19T23:13:56.865Z,99860.81
2023-03-19T23:18:59.059Z,99864.97
2023-03-19T23:24:01.525Z,99821.72
2023-03-19T23:29:06.112Z,99826.84
2023-03-19T23:34:11.406Z,99789.50
2023-03-19T23:39:14.293Z,99864.53
2023-03-19T23:44:17.900Z,99867.03
2023-03-19T23:49:29.282Z,99857.75
2023-03-19T23:54:34.631Z,99863.47
2023-03-19T23:59:38.958Z,99856.50
